sensor_id;sensor_type;location;lat;lon;timestamp;temperature;humidity
2300;DHT22;1158;48.750;9.078;2023-07-29T00:00:45;15.50;99.90
2300;DHT22;1158;48.750;9.078;2023-07-29T00:03:11;15.50;99.90
2300;DHT22;1158;48.750;9.078;2023-07-29T00:05:38;15.50;99.90
2300;DHT22;1158;48.750;9.078;2023-07-29T00:08:06;15.50;99.90
2300;DHT22;1158;48.750;9.078;2023-07-29T00:10:36;15.50;99.90
2300;DHT22;1158;48.750;9.078;2023-07-29T00:13:03;15.50;99.90
2300;DHT22;1158;48.750;9.078;2023-07-29T00:15:30;15.50;99.90
2300;DHT22;1158;48.750;9.078;2023-07-29T00:17:57;15.50;99.90
2300;DHT22;1158;48.750;9.078;2023-07-29T00:20:24;15.60;99.90
2300;DHT22;1158;48.750;9.078;2023-07-29T00:22:51;15.50;99.90
2300;DHT22;1158;48.750;9.078;2023-07-29T00:25:19;15.50;99.90
2300;DHT22;1158;48.750;9.078;2023-07-29T00:27:47;15.50;99.90
2300;DHT22;1158;48.750;9.078;2023-07-29T00:30:14;15.60;99.90
2300;DHT22;1158;48.750;9.078;2023-07-29T00:32:41;15.50;99.90
2300;DHT22;1158;48.750;9.078;2023-07-29T00:35:08;15.50;99.90
2300;DHT22;1158;48.750;9.078;2023-07-29T00:37:35;15.50;99.90
2300;DHT22;1158;48.750;9.078;2023-07-29T00:40:03;15.50;99.90
2300;DHT22;1158;48.750;9.078;2023-07-29T00:42:30;15.40;99.90
2300;DHT22;1158;48.750;9.078;2023-07-29T00:44:58;15.40;99.90
2300;DHT22;1158;48.750;9.078;2023-07-29T00:47:25;15.50;99.90
2300;DHT22;1158;48.750;9.078;2023-07-29T00:49:52;15.50;99.90
2300;DHT22;1158;48.750;9.078;2023-07-29T00:52:19;15.60;99.90
2300;DHT22;1158;48.750;9.078;2023-07-29T00:54:45;15.50;99.90
2300;DHT22;1158;48.750;9.078;2023-07-29T00:57:13;15.50;99.90
2300;DHT22;1158;48.750;9.078;2023-07-29T00:59:41;15.50;99.90
2300;DHT22;1158;48.750;9.078;2023-07-29T01:02:10;15.50;99.90
2300;DHT22;1158;48.750;9.078;2023-07-29T01:04:36;15.50;99.90
2300;DHT22;1158;48.750;9.078;2023-07-29T01:07:09;15.50;99.90
2300;DHT22;1158;48.750;9.078;2023-07-29T01:09:43;15.60;99.90
2300;DHT22;1158;48.750;9.078;2023-07-29T01:12:20;15.60;99.90
2300;DHT22;1158;48.750;9.078;2023-07-29T01:14:55;15.60;99.90
2300;DHT22;1158;48.750;9.078;2023-07-29T01:17:32;15.70;99.90
2300;DHT22;1158;48.750;9.078;2023-07-29T01:20:02;15.60;99.90
2300;DHT22;1158;48.750;9.078;2023-07-29T01:22:32;15.60;99.90
2300;DHT22;1158;48.750;9.078;2023-07-29T01:25:01;15.60;99.90
2300;DHT22;1158;48.750;9.078;2023-07-29T01:27:28;15.50;99.90
2300;DHT22;1158;48.750;9.078;2023-07-29T01:29:56;15.50;99.90
2300;DHT22;1158;48.750;9.078;2023-07-29T01:32:28;15.50;99.90
2300;DHT22;1158;48.750;9.078;2023-07-29T01:37:44;15.60;99.90
2300;DHT22;1158;48.750;9.078;2023-07-29T01:40:17;15.60;99.90
2300;DHT22;1158;48.750;9.078;2023-07-29T01:42:44;15.60;99.90
2300;DHT22;1158;48.750;9.078;2023-07-29T01:45:12;15.60;99.90
2300;DHT22;1158;48.750;9.078;2023-07-29T01:47:38;15.60;99.90
2300;DHT22;1158;48.750;9.078;2023-07-29T01:50:07;15.70;99.90
2300;DHT22;1158;48.750;9.078;2023-07-29T01:52:34;15.70;99.90
2300;DHT22;1158;48.750;9.078;2023-07-29T01:55:01;15.80;99.90
2300;DHT22;1158;48.750;9.078;2023-07-29T01:57:30;15.80;99.90
2300;DHT22;1158;48.750;9.078;2023-07-29T01:59:56;15.80;99.90
2300;DHT22;1158;48.750;9.078;2023-07-29T02:02:23;15.80;99.90
2300;DHT22;1158;48.750;9.078;2023-07-29T02:04:50;15.80;99.90
2300;DHT22;1158;48.750;9.078;2023-07-29T02:07:18;15.80;99.90
2300;DHT22;1158;48.750;9.078;2023-07-29T02:09:44;15.80;99.90
2300;DHT22;1158;48.750;9.078;2023-07-29T02:12:11;15.80;99.90
2300;DHT22;1158;48.750;9.078;2023-07-29T02:14:39;15.80;99.90
2300;DHT22;1158;48.750;9.078;2023-07-29T02:17:06;15.80;99.90
2300;DHT22;1158;48.750;9.078;2023-07-29T02:19:34;15.80;99.90
2300;DHT22;1158;48.750;9.078;2023-07-29T02:22:01;15.70;99.90
2300;DHT22;1158;48.750;9.078;2023-07-29T02:24:28;15.70;99.90
2300;DHT22;1158;48.750;9.078;2023-07-29T02:26:54;15.60;99.90
2300;DHT22;1158;48.750;9.078;2023-07-29T02:29:21;15.60;99.90
2300;DHT22;1158;48.750;9.078;2023-07-29T02:31:50;15.60;99.90
2300;DHT22;1158;48.750;9.078;2023-07-29T02:34:17;15.60;99.90
2300;DHT22;1158;48.750;9.078;2023-07-29T02:36:43;15.70;99.90
2300;DHT22;1158;48.750;9.078;2023-07-29T02:39:11;15.70;99.90
2300;DHT22;1158;48.750;9.078;2023-07-29T02:41:37;15.60;99.90
2300;DHT22;1158;48.750;9.078;2023-07-29T02:44:05;15.60;99.90
2300;DHT22;1158;48.750;9.078;2023-07-29T02:46:32;15.70;99.90
2300;DHT22;1158;48.750;9.078;2023-07-29T02:49:02;15.70;99.90
2300;DHT22;1158;48.750;9.078;2023-07-29T02:51:29;15.70;99.90
2300;DHT22;1158;48.750;9.078;2023-07-29T02:53:56;15.70;99.90
2300;DHT22;1158;48.750;9.078;2023-07-29T02:56:23;15.70;99.90
2300;DHT22;1158;48.750;9.078;2023-07-29T02:58:50;15.70;99.90
2300;DHT22;1158;48.750;9.078;2023-07-29T03:01:17;15.70;99.90
2300;DHT22;1158;48.750;9.078;2023-07-29T03:03:44;15.70;99.90
2300;DHT22;1158;48.750;9.078;2023-07-29T03:06:13;15.80;99.90
2300;DHT22;1158;48.750;9.078;2023-07-29T03:08:41;15.70;99.90
2300;DHT22;1158;48.750;9.078;2023-07-29T03:11:09;15.70;99.90
2300;DHT22;1158;48.750;9.078;2023-07-29T03:13:36;15.70;99.90
2300;DHT22;1158;48.750;9.078;2023-07-29T03:16:06;15.60;99.90
2300;DHT22;1158;48.750;9.078;2023-07-29T03:18:33;15.70;99.90
2300;DHT22;1158;48.750;9.078;2023-07-29T03:21:00;15.70;99.90
2300;DHT22;1158;48.750;9.078;2023-07-29T03:23:29;15.70;99.90
2300;DHT22;1158;48.750;9.078;2023-07-29T03:25:56;15.70;99.90
2300;DHT22;1158;48.750;9.078;2023-07-29T03:28:24;15.70;99.90
2300;DHT22;1158;48.750;9.078;2023-07-29T03:30:52;15.70;99.90
2300;DHT22;1158;48.750;9.078;2023-07-29T03:33:19;15.70;99.90
2300;DHT22;1158;48.750;9.078;2023-07-29T03:35:46;15.70;99.90
2300;DHT22;1158;48.750;9.078;2023-07-29T03:38:13;15.70;99.90
2300;DHT22;1158;48.750;9.078;2023-07-29T03:40:42;15.70;99.90
2300;DHT22;1158;48.750;9.078;2023-07-29T03:43:09;15.70;99.90
2300;DHT22;1158;48.750;9.078;2023-07-29T03:45:36;15.80;99.90
2300;DHT22;1158;48.750;9.078;2023-07-29T03:48:04;15.80;99.90
2300;DHT22;1158;48.750;9.078;2023-07-29T03:50:33;15.80;99.90
2300;DHT22;1158;48.750;9.078;2023-07-29T03:53:00;15.90;99.90
2300;DHT22;1158;48.750;9.078;2023-07-29T03:55:27;15.90;99.90
2300;DHT22;1158;48.750;9.078;2023-07-29T03:57:56;16.00;99.90
2300;DHT22;1158;48.750;9.078;2023-07-29T04:00:23;16.00;99.90
2300;DHT22;1158;48.750;9.078;2023-07-29T04:02:50;16.00;99.90
2300;DHT22;1158;48.750;9.078;2023-07-29T04:05:17;16.00;99.90
2300;DHT22;1158;48.750;9.078;2023-07-29T04:07:44;16.10;99.90
2300;DHT22;1158;48.750;9.078;2023-07-29T04:10:11;16.00;99.90
2300;DHT22;1158;48.750;9.078;2023-07-29T04:12:38;16.00;99.90
2300;DHT22;1158;48.750;9.078;2023-07-29T04:15:07;16.10;99.90
2300;DHT22;1158;48.750;9.078;2023-07-29T04:17:34;16.10;99.90
2300;DHT22;1158;48.750;9.078;2023-07-29T04:20:01;16.20;99.90
2300;DHT22;1158;48.750;9.078;2023-07-29T04:22:28;16.20;99.90
2300;DHT22;1158;48.750;9.078;2023-07-29T04:24:55;16.20;99.90
2300;DHT22;1158;48.750;9.078;2023-07-29T04:27:21;16.20;99.90
2300;DHT22;1158;48.750;9.078;2023-07-29T04:29:48;16.20;99.90
2300;DHT22;1158;48.750;9.078;2023-07-29T04:32:16;16.20;99.90
2300;DHT22;1158;48.750;9.078;2023-07-29T04:34:43;16.20;99.90
2300;DHT22;1158;48.750;9.078;2023-07-29T04:37:10;16.20;99.90
2300;DHT22;1158;48.750;9.078;2023-07-29T04:39:36;16.20;99.90
2300;DHT22;1158;48.750;9.078;2023-07-29T04:42:04;16.20;99.90
2300;DHT22;1158;48.750;9.078;2023-07-29T04:44:30;16.20;99.90
2300;DHT22;1158;48.750;9.078;2023-07-29T04:46:57;16.20;99.90
2300;DHT22;1158;48.750;9.078;2023-07-29T04:49:25;16.20;99.90
2300;DHT22;1158;48.750;9.078;2023-07-29T04:51:52;16.20;99.90
2300;DHT22;1158;48.750;9.078;2023-07-29T04:54:19;16.20;99.90
2300;DHT22;1158;48.750;9.078;2023-07-29T04:56:46;16.20;99.90
2300;DHT22;1158;48.750;9.078;2023-07-29T04:59:13;16.20;99.90
2300;DHT22;1158;48.750;9.078;2023-07-29T05:01:40;16.20;99.90
2300;DHT22;1158;48.750;9.078;2023-07-29T05:04:08;16.20;99.90
2300;DHT22;1158;48.750;9.078;2023-07-29T05:06:36;16.20;99.90
2300;DHT22;1158;48.750;9.078;2023-07-29T05:09:12;16.20;99.90
2300;DHT22;1158;48.750;9.078;2023-07-29T05:11:39;16.20;99.90
2300;DHT22;1158;48.750;9.078;2023-07-29T05:14:06;16.20;99.90
2300;DHT22;1158;48.750;9.078;2023-07-29T05:16:34;16.30;99.90
2300;DHT22;1158;48.750;9.078;2023-07-29T05:19:01;16.30;99.90
2300;DHT22;1158;48.750;9.078;2023-07-29T05:21:29;16.30;99.90
2300;DHT22;1158;48.750;9.078;2023-07-29T05:23:57;16.40;99.90
2300;DHT22;1158;48.750;9.078;2023-07-29T05:26:23;16.40;99.90
2300;DHT22;1158;48.750;9.078;2023-07-29T05:28:50;16.50;99.90
2300;DHT22;1158;48.750;9.078;2023-07-29T05:31:17;16.50;99.90
2300;DHT22;1158;48.750;9.078;2023-07-29T05:33:44;16.50;99.90
2300;DHT22;1158;48.750;9.078;2023-07-29T05:36:11;16.60;99.90
2300;DHT22;1158;48.750;9.078;2023-07-29T05:38:37;16.70;99.90
2300;DHT22;1158;48.750;9.078;2023-07-29T05:41:05;16.70;99.90
2300;DHT22;1158;48.750;9.078;2023-07-29T05:43:32;16.80;99.90
2300;DHT22;1158;48.750;9.078;2023-07-29T05:45:59;16.90;99.90
2300;DHT22;1158;48.750;9.078;2023-07-29T05:48:26;17.00;99.90
2300;DHT22;1158;48.750;9.078;2023-07-29T05:50:52;17.10;99.90
2300;DHT22;1158;48.750;9.078;2023-07-29T05:53:19;17.30;99.90
2300;DHT22;1158;48.750;9.078;2023-07-29T05:55:46;17.30;99.90
2300;DHT22;1158;48.750;9.078;2023-07-29T05:58:14;17.40;99.90
2300;DHT22;1158;48.750;9.078;2023-07-29T06:00:41;17.40;99.90
2300;DHT22;1158;48.750;9.078;2023-07-29T06:03:08;17.60;99.90
2300;DHT22;1158;48.750;9.078;2023-07-29T06:05:34;18.20;99.90
2300;DHT22;1158;48.750;9.078;2023-07-29T06:08:01;19.10;99.90
2300;DHT22;1158;48.750;9.078;2023-07-29T06:10:28;19.90;99.90
2300;DHT22;1158;48.750;9.078;2023-07-29T06:12:55;19.70;99.90
2300;DHT22;1158;48.750;9.078;2023-07-29T06:15:23;19.50;99.90
2300;DHT22;1158;48.750;9.078;2023-07-29T06:17:49;19.30;99.90
2300;DHT22;1158;48.750;9.078;2023-07-29T06:20:16;19.20;99.90
2300;DHT22;1158;48.750;9.078;2023-07-29T06:22:43;19.50;99.90
2300;DHT22;1158;48.750;9.078;2023-07-29T06:25:10;19.90;99.90
2300;DHT22;1158;48.750;9.078;2023-07-29T06:27:37;19.70;99.90
2300;DHT22;1158;48.750;9.078;2023-07-29T06:30:07;19.40;99.90
2300;DHT22;1158;48.750;9.078;2023-07-29T06:32:35;19.30;99.90
2300;DHT22;1158;48.750;9.078;2023-07-29T06:35:02;19.10;99.90
2300;DHT22;1158;48.750;9.078;2023-07-29T06:37:29;19.00;99.90
2300;DHT22;1158;48.750;9.078;2023-07-29T06:39:56;18.90;99.90
2300;DHT22;1158;48.750;9.078;2023-07-29T06:42:23;18.90;99.90
2300;DHT22;1158;48.750;9.078;2023-07-29T06:45:00;18.80;99.90
2300;DHT22;1158;48.750;9.078;2023-07-29T06:47:27;18.70;99.90
2300;DHT22;1158;48.750;9.078;2023-07-29T06:49:55;18.70;99.90
2300;DHT22;1158;48.750;9.078;2023-07-29T06:52:22;18.60;99.90
2300;DHT22;1158;48.750;9.078;2023-07-29T06:54:48;18.50;99.90
2300;DHT22;1158;48.750;9.078;2023-07-29T06:57:15;18.40;99.90
2300;DHT22;1158;48.750;9.078;2023-07-29T06:59:42;18.30;99.90
2300;DHT22;1158;48.750;9.078;2023-07-29T07:02:08;18.20;99.90
2300;DHT22;1158;48.750;9.078;2023-07-29T07:04:35;18.10;99.90
2300;DHT22;1158;48.750;9.078;2023-07-29T07:07:04;17.90;99.90
2300;DHT22;1158;48.750;9.078;2023-07-29T07:09:31;17.90;99.90
2300;DHT22;1158;48.750;9.078;2023-07-29T07:11:58;17.80;99.90
2300;DHT22;1158;48.750;9.078;2023-07-29T07:14:24;17.80;99.90
2300;DHT22;1158;48.750;9.078;2023-07-29T07:16:51;17.70;99.90
2300;DHT22;1158;48.750;9.078;2023-07-29T07:19:18;17.70;99.90
2300;DHT22;1158;48.750;9.078;2023-07-29T07:21:45;17.70;99.90
2300;DHT22;1158;48.750;9.078;2023-07-29T07:24:13;17.70;99.90
2300;DHT22;1158;48.750;9.078;2023-07-29T07:26:39;17.70;99.90
2300;DHT22;1158;48.750;9.078;2023-07-29T07:29:06;17.70;99.90
2300;DHT22;1158;48.750;9.078;2023-07-29T07:31:33;17.70;99.90
2300;DHT22;1158;48.750;9.078;2023-07-29T07:34:00;17.70;99.90
2300;DHT22;1158;48.750;9.078;2023-07-29T07:36:29;17.80;99.90
2300;DHT22;1158;48.750;9.078;2023-07-29T07:38:56;17.80;99.90
2300;DHT22;1158;48.750;9.078;2023-07-29T07:41:24;17.90;99.90
2300;DHT22;1158;48.750;9.078;2023-07-29T07:43:51;17.90;99.90
2300;DHT22;1158;48.750;9.078;2023-07-29T07:46:18;18.00;99.90
2300;DHT22;1158;48.750;9.078;2023-07-29T07:48:44;17.90;99.90
2300;DHT22;1158;48.750;9.078;2023-07-29T07:51:11;18.10;99.90
2300;DHT22;1158;48.750;9.078;2023-07-29T07:53:38;18.20;99.90
2300;DHT22;1158;48.750;9.078;2023-07-29T07:56:05;18.20;99.90
2300;DHT22;1158;48.750;9.078;2023-07-29T07:58:34;18.20;99.90
2300;DHT22;1158;48.750;9.078;2023-07-29T08:01:01;18.40;99.90
2300;DHT22;1158;48.750;9.078;2023-07-29T08:03:28;18.70;99.90
2300;DHT22;1158;48.750;9.078;2023-07-29T08:05:55;18.70;99.90
2300;DHT22;1158;48.750;9.078;2023-07-29T08:08:21;18.70;99.90
2300;DHT22;1158;48.750;9.078;2023-07-29T08:10:48;19.00;99.90
2300;DHT22;1158;48.750;9.078;2023-07-29T08:13:15;19.30;99.90
2300;DHT22;1158;48.750;9.078;2023-07-29T08:15:46;19.90;99.90
2300;DHT22;1158;48.750;9.078;2023-07-29T08:18:12;20.30;99.90
2300;DHT22;1158;48.750;9.078;2023-07-29T08:20:39;20.50;99.90
2300;DHT22;1158;48.750;9.078;2023-07-29T08:23:06;20.50;99.90
2300;DHT22;1158;48.750;9.078;2023-07-29T08:25:33;20.60;99.90
2300;DHT22;1158;48.750;9.078;2023-07-29T08:27:59;20.60;99.90
2300;DHT22;1158;48.750;9.078;2023-07-29T08:30:26;20.50;99.90
2300;DHT22;1158;48.750;9.078;2023-07-29T08:32:54;20.60;99.90
2300;DHT22;1158;48.750;9.078;2023-07-29T08:35:21;20.90;99.90
2300;DHT22;1158;48.750;9.078;2023-07-29T08:37:48;21.00;99.90
2300;DHT22;1158;48.750;9.078;2023-07-29T08:40:15;21.10;99.90
2300;DHT22;1158;48.750;9.078;2023-07-29T08:42:42;21.20;99.90
2300;DHT22;1158;48.750;9.078;2023-07-29T08:45:11;21.50;99.90
2300;DHT22;1158;48.750;9.078;2023-07-29T08:47:38;21.90;99.90
2300;DHT22;1158;48.750;9.078;2023-07-29T08:50:07;22.30;99.90
2300;DHT22;1158;48.750;9.078;2023-07-29T08:52:35;23.40;99.90
2300;DHT22;1158;48.750;9.078;2023-07-29T08:55:02;24.60;99.90
2300;DHT22;1158;48.750;9.078;2023-07-29T08:57:29;24.70;99.90
2300;DHT22;1158;48.750;9.078;2023-07-29T08:59:57;23.90;99.90
2300;DHT22;1158;48.750;9.078;2023-07-29T09:02:24;23.50;99.90
2300;DHT22;1158;48.750;9.078;2023-07-29T09:04:51;23.50;99.90
2300;DHT22;1158;48.750;9.078;2023-07-29T09:07:20;23.30;99.90
2300;DHT22;1158;48.750;9.078;2023-07-29T09:09:47;22.90;99.90
2300;DHT22;1158;48.750;9.078;2023-07-29T09:12:13;22.90;99.90
2300;DHT22;1158;48.750;9.078;2023-07-29T09:14:40;22.80;99.90
2300;DHT22;1158;48.750;9.078;2023-07-29T09:17:08;23.40;99.90
2300;DHT22;1158;48.750;9.078;2023-07-29T09:19:35;24.80;99.90
2300;DHT22;1158;48.750;9.078;2023-07-29T09:22:02;25.80;99.90
2300;DHT22;1158;48.750;9.078;2023-07-29T09:24:30;27.10;99.90
2300;DHT22;1158;48.750;9.078;2023-07-29T09:26:58;27.40;99.90
2300;DHT22;1158;48.750;9.078;2023-07-29T09:29:28;27.50;99.90
2300;DHT22;1158;48.750;9.078;2023-07-29T09:32:18;27.70;99.90
2300;DHT22;1158;48.750;9.078;2023-07-29T09:34:45;26.50;99.90
2300;DHT22;1158;48.750;9.078;2023-07-29T09:37:16;25.90;99.90
2300;DHT22;1158;48.750;9.078;2023-07-29T09:39:45;25.00;99.90
2300;DHT22;1158;48.750;9.078;2023-07-29T09:42:17;24.10;99.90
2300;DHT22;1158;48.750;9.078;2023-07-29T09:44:45;24.30;99.90
2300;DHT22;1158;48.750;9.078;2023-07-29T09:47:19;24.90;99.90
2300;DHT22;1158;48.750;9.078;2023-07-29T09:49:46;25.40;99.90
2300;DHT22;1158;48.750;9.078;2023-07-29T09:52:15;25.80;99.90
2300;DHT22;1158;48.750;9.078;2023-07-29T09:54:44;25.10;99.90
2300;DHT22;1158;48.750;9.078;2023-07-29T09:57:11;25.00;99.90
2300;DHT22;1158;48.750;9.078;2023-07-29T09:59:40;26.30;99.90
2300;DHT22;1158;48.750;9.078;2023-07-29T10:02:12;27.50;99.90
2300;DHT22;1158;48.750;9.078;2023-07-29T10:04:41;28.60;99.90
2300;DHT22;1158;48.750;9.078;2023-07-29T10:07:09;29.60;99.90
2300;DHT22;1158;48.750;9.078;2023-07-29T10:09:37;28.70;99.90
2300;DHT22;1158;48.750;9.078;2023-07-29T10:12:06;27.70;99.90
2300;DHT22;1158;48.750;9.078;2023-07-29T10:14:33;28.00;99.90
2300;DHT22;1158;48.750;9.078;2023-07-29T10:17:00;28.60;99.90
2300;DHT22;1158;48.750;9.078;2023-07-29T10:19:28;28.20;99.90
2300;DHT22;1158;48.750;9.078;2023-07-29T10:21:56;28.20;99.90
2300;DHT22;1158;48.750;9.078;2023-07-29T10:24:30;28.00;99.90
2300;DHT22;1158;48.750;9.078;2023-07-29T10:27:00;27.80;99.90
2300;DHT22;1158;48.750;9.078;2023-07-29T10:29:31;28.00;99.90
2300;DHT22;1158;48.750;9.078;2023-07-29T10:32:01;27.70;99.90
2300;DHT22;1158;48.750;9.078;2023-07-29T10:34:31;27.00;99.90
2300;DHT22;1158;48.750;9.078;2023-07-29T10:36:58;27.20;99.90
2300;DHT22;1158;48.750;9.078;2023-07-29T10:39:25;26.90;99.90
2300;DHT22;1158;48.750;9.078;2023-07-29T10:41:57;26.30;99.90
2300;DHT22;1158;48.750;9.078;2023-07-29T10:44:53;25.40;99.90
2300;DHT22;1158;48.750;9.078;2023-07-29T10:47:24;24.70;99.90
2300;DHT22;1158;48.750;9.078;2023-07-29T10:49:53;25.30;99.90
2300;DHT22;1158;48.750;9.078;2023-07-29T10:52:39;26.10;99.90
2300;DHT22;1158;48.750;9.078;2023-07-29T10:55:27;26.90;99.90
2300;DHT22;1158;48.750;9.078;2023-07-29T10:58:05;27.10;99.90
2300;DHT22;1158;48.750;9.078;2023-07-29T11:00:35;27.70;99.90
2300;DHT22;1158;48.750;9.078;2023-07-29T11:03:05;28.10;99.90
2300;DHT22;1158;48.750;9.078;2023-07-29T11:05:47;29.00;99.90
2300;DHT22;1158;48.750;9.078;2023-07-29T11:08:18;28.80;99.90
2300;DHT22;1158;48.750;9.078;2023-07-29T11:10:58;28.30;99.90
2300;DHT22;1158;48.750;9.078;2023-07-29T11:13:26;29.70;99.90
2300;DHT22;1158;48.750;9.078;2023-07-29T11:15:56;30.10;99.90
2300;DHT22;1158;48.750;9.078;2023-07-29T11:18:27;30.40;99.30
2300;DHT22;1158;48.750;9.078;2023-07-29T11:20:56;29.20;99.20
2300;DHT22;1158;48.750;9.078;2023-07-29T11:23:34;28.10;99.90
2300;DHT22;1158;48.750;9.078;2023-07-29T11:26:02;27.90;99.90
2300;DHT22;1158;48.750;9.078;2023-07-29T11:28:30;27.20;99.90
2300;DHT22;1158;48.750;9.078;2023-07-29T11:30:58;26.50;99.90
2300;DHT22;1158;48.750;9.078;2023-07-29T11:33:26;25.90;99.90
2300;DHT22;1158;48.750;9.078;2023-07-29T11:35:53;26.40;99.90
2300;DHT22;1158;48.750;9.078;2023-07-29T11:38:21;27.60;99.90
2300;DHT22;1158;48.750;9.078;2023-07-29T11:40:56;28.10;99.90
2300;DHT22;1158;48.750;9.078;2023-07-29T11:43:23;28.10;99.90
2300;DHT22;1158;48.750;9.078;2023-07-29T11:45:51;28.20;99.90
2300;DHT22;1158;48.750;9.078;2023-07-29T11:48:26;28.30;99.90
2300;DHT22;1158;48.750;9.078;2023-07-29T11:50:53;28.80;99.90
2300;DHT22;1158;48.750;9.078;2023-07-29T11:53:21;28.80;99.00
2300;DHT22;1158;48.750;9.078;2023-07-29T11:55:50;28.60;99.40
2300;DHT22;1158;48.750;9.078;2023-07-29T11:58:17;28.80;99.90
2300;DHT22;1158;48.750;9.078;2023-07-29T12:00:44;29.60;99.80
2300;DHT22;1158;48.750;9.078;2023-07-29T12:03:11;30.20;98.60
2300;DHT22;1158;48.750;9.078;2023-07-29T12:05:40;29.90;97.80
2300;DHT22;1158;48.750;9.078;2023-07-29T12:08:08;29.30;99.00
2300;DHT22;1158;48.750;9.078;2023-07-29T12:10:35;28.90;98.40
2300;DHT22;1158;48.750;9.078;2023-07-29T12:13:03;29.20;98.70
2300;DHT22;1158;48.750;9.078;2023-07-29T12:15:30;29.70;98.70
2300;DHT22;1158;48.750;9.078;2023-07-29T12:17:58;30.10;98.20
2300;DHT22;1158;48.750;9.078;2023-07-29T12:20:25;30.60;95.80
2300;DHT22;1158;48.750;9.078;2023-07-29T12:22:54;29.80;96.10
2300;DHT22;1158;48.750;9.078;2023-07-29T12:25:22;29.00;97.20
2300;DHT22;1158;48.750;9.078;2023-07-29T12:27:49;28.80;97.60
2300;DHT22;1158;48.750;9.078;2023-07-29T12:30:16;29.50;97.20
2300;DHT22;1158;48.750;9.078;2023-07-29T12:32:44;30.00;95.20
2300;DHT22;1158;48.750;9.078;2023-07-29T12:35:12;29.80;93.90
2300;DHT22;1158;48.750;9.078;2023-07-29T12:37:39;29.20;94.30
2300;DHT22;1158;48.750;9.078;2023-07-29T12:40:21;29.00;95.50
2300;DHT22;1158;48.750;9.078;2023-07-29T12:42:48;29.80;94.10
2300;DHT22;1158;48.750;9.078;2023-07-29T12:45:15;30.20;93.70
2300;DHT22;1158;48.750;9.078;2023-07-29T12:47:42;31.20;93.10
2300;DHT22;1158;48.750;9.078;2023-07-29T12:50:09;30.90;92.10
2300;DHT22;1158;48.750;9.078;2023-07-29T12:52:36;30.30;93.20
2300;DHT22;1158;48.750;9.078;2023-07-29T12:55:04;29.90;93.20
2300;DHT22;1158;48.750;9.078;2023-07-29T12:57:32;29.50;93.30
2300;DHT22;1158;48.750;9.078;2023-07-29T12:59:59;29.10;92.50
2300;DHT22;1158;48.750;9.078;2023-07-29T13:02:25;28.70;92.60
2300;DHT22;1158;48.750;9.078;2023-07-29T13:04:52;28.10;93.90
2300;DHT22;1158;48.750;9.078;2023-07-29T13:07:19;29.00;93.20
2300;DHT22;1158;48.750;9.078;2023-07-29T13:09:46;30.10;93.30
2300;DHT22;1158;48.750;9.078;2023-07-29T13:12:12;29.70;92.00
2300;DHT22;1158;48.750;9.078;2023-07-29T13:14:41;29.70;92.30
2300;DHT22;1158;48.750;9.078;2023-07-29T13:17:07;29.80;92.10
2300;DHT22;1158;48.750;9.078;2023-07-29T13:19:34;30.00;91.60
2300;DHT22;1158;48.750;9.078;2023-07-29T13:22:01;29.50;92.30
2300;DHT22;1158;48.750;9.078;2023-07-29T13:24:28;29.10;92.50
2300;DHT22;1158;48.750;9.078;2023-07-29T13:26:55;28.60;93.00
2300;DHT22;1158;48.750;9.078;2023-07-29T13:29:21;28.70;93.30
2300;DHT22;1158;48.750;9.078;2023-07-29T13:31:50;28.90;93.10
2300;DHT22;1158;48.750;9.078;2023-07-29T13:34:17;27.90;92.70
2300;DHT22;1158;48.750;9.078;2023-07-29T13:36:43;27.00;93.80
2300;DHT22;1158;48.750;9.078;2023-07-29T13:39:10;26.70;94.40
2300;DHT22;1158;48.750;9.078;2023-07-29T13:41:37;26.90;95.00
2300;DHT22;1158;48.750;9.078;2023-07-29T13:44:04;27.30;94.40
2300;DHT22;1158;48.750;9.078;2023-07-29T13:46:31;27.20;94.90
2300;DHT22;1158;48.750;9.078;2023-07-29T13:48:59;27.30;94.40
2300;DHT22;1158;48.750;9.078;2023-07-29T13:51:25;27.30;94.50
2300;DHT22;1158;48.750;9.078;2023-07-29T13:53:52;27.30;94.30
2300;DHT22;1158;48.750;9.078;2023-07-29T13:56:19;27.10;94.80
2300;DHT22;1158;48.750;9.078;2023-07-29T13:58:46;27.20;94.70
2300;DHT22;1158;48.750;9.078;2023-07-29T14:01:12;27.40;94.30
2300;DHT22;1158;48.750;9.078;2023-07-29T14:03:39;27.60;94.40
2300;DHT22;1158;48.750;9.078;2023-07-29T14:06:07;27.80;94.90
2300;DHT22;1158;48.750;9.078;2023-07-29T14:08:34;28.10;94.90
2300;DHT22;1158;48.750;9.078;2023-07-29T14:11:01;28.10;95.00
2300;DHT22;1158;48.750;9.078;2023-07-29T14:13:28;27.90;93.90
2300;DHT22;1158;48.750;9.078;2023-07-29T14:15:55;27.40;94.40
2300;DHT22;1158;48.750;9.078;2023-07-29T14:18:21;27.10;95.10
2300;DHT22;1158;48.750;9.078;2023-07-29T14:20:48;26.70;95.90
2300;DHT22;1158;48.750;9.078;2023-07-29T14:23:18;26.50;96.10
2300;DHT22;1158;48.750;9.078;2023-07-29T14:25:44;26.40;95.70
2300;DHT22;1158;48.750;9.078;2023-07-29T14:28:13;26.30;96.10
2300;DHT22;1158;48.750;9.078;2023-07-29T14:30:40;26.00;96.90
2300;DHT22;1158;48.750;9.078;2023-07-29T14:33:07;25.90;96.70
2300;DHT22;1158;48.750;9.078;2023-07-29T14:35:34;25.90;97.80
2300;DHT22;1158;48.750;9.078;2023-07-29T14:38:01;26.10;97.20
2300;DHT22;1158;48.750;9.078;2023-07-29T14:40:29;25.90;97.10
2300;DHT22;1158;48.750;9.078;2023-07-29T14:42:55;25.80;97.20
2300;DHT22;1158;48.750;9.078;2023-07-29T14:45:22;25.80;96.90
2300;DHT22;1158;48.750;9.078;2023-07-29T14:47:49;25.70;97.90
2300;DHT22;1158;48.750;9.078;2023-07-29T14:50:16;25.40;97.60
2300;DHT22;1158;48.750;9.078;2023-07-29T14:52:43;25.50;98.00
2300;DHT22;1158;48.750;9.078;2023-07-29T14:55:09;25.60;98.40
2300;DHT22;1158;48.750;9.078;2023-07-29T14:57:37;25.60;97.60
2300;DHT22;1158;48.750;9.078;2023-07-29T15:00:07;25.80;97.70
2300;DHT22;1158;48.750;9.078;2023-07-29T15:02:34;25.80;97.80
2300;DHT22;1158;48.750;9.078;2023-07-29T15:05:01;26.10;97.70
2300;DHT22;1158;48.750;9.078;2023-07-29T15:07:27;26.20;97.10
2300;DHT22;1158;48.750;9.078;2023-07-29T15:09:54;26.00;97.70
2300;DHT22;1158;48.750;9.078;2023-07-29T15:12:21;25.90;97.70
2300;DHT22;1158;48.750;9.078;2023-07-29T15:14:49;26.30;97.90
2300;DHT22;1158;48.750;9.078;2023-07-29T15:17:16;26.70;97.30
2300;DHT22;1158;48.750;9.078;2023-07-29T15:19:43;26.80;98.10
2300;DHT22;1158;48.750;9.078;2023-07-29T15:22:09;26.90;96.90
2300;DHT22;1158;48.750;9.078;2023-07-29T15:24:36;26.60;96.40
2300;DHT22;1158;48.750;9.078;2023-07-29T15:27:05;26.40;97.10
2300;DHT22;1158;48.750;9.078;2023-07-29T15:29:32;26.40;98.00
2300;DHT22;1158;48.750;9.078;2023-07-29T15:32:00;26.30;97.60
2300;DHT22;1158;48.750;9.078;2023-07-29T15:34:26;26.20;97.20
2300;DHT22;1158;48.750;9.078;2023-07-29T15:36:57;26.20;97.80
2300;DHT22;1158;48.750;9.078;2023-07-29T15:39:24;26.50;97.90
2300;DHT22;1158;48.750;9.078;2023-07-29T15:41:51;26.60;97.10
2300;DHT22;1158;48.750;9.078;2023-07-29T15:44:19;26.60;95.70
2300;DHT22;1158;48.750;9.078;2023-07-29T15:46:45;26.60;97.00
2300;DHT22;1158;48.750;9.078;2023-07-29T15:49:13;26.30;97.00
2300;DHT22;1158;48.750;9.078;2023-07-29T15:51:40;26.70;96.00
2300;DHT22;1158;48.750;9.078;2023-07-29T15:54:07;26.40;96.10
2300;DHT22;1158;48.750;9.078;2023-07-29T15:56:34;26.10;95.80
2300;DHT22;1158;48.750;9.078;2023-07-29T15:59:01;25.60;95.60
2300;DHT22;1158;48.750;9.078;2023-07-29T16:01:28;25.50;96.20
2300;DHT22;1158;48.750;9.078;2023-07-29T16:03:55;25.70;96.00
2300;DHT22;1158;48.750;9.078;2023-07-29T16:06:25;25.80;96.00
2300;DHT22;1158;48.750;9.078;2023-07-29T16:08:52;25.50;95.90